Central, Indiana
Current Conditions -  °F | °C
As of 10:58 PM on Friday 19 Dec 2014 (Local Time) from KFTK Reporting Station
Broken Clouds Broken Clouds  
Wind Chill: 23°   Ceiling: 14000
Heat Index: 28°   Visibility: 10mi
Dew Point: 22°   Wind: 5mph
Humidity: 77%   Direction: 40°NE
Pressure: 30.24"   Gusts: NA
Location:  38.1°N, 86.16°W
Report Text: KFTK 200358Z AUTO 04004KT 10SM BKN140 M02/M06 A3024 RMK AO2 SLP251 T10211056
Loading
Personal Weather Stations






























Interactive Weather Map New forecast layout! Learn more

10-Day Weather Forecast

Advertisements
Track Severe Weather on mobile